createdAt,value
2023-03-22T00:01:24.294Z,96723.09
2023-03-22T00:03:52.525Z,96721.88
2023-03-22T00:06:19.385Z,96729.28
2023-03-22T00:08:50.645Z,96716.25
2023-03-22T00:11:17.865Z,96719.06
2023-03-22T00:13:46.938Z,96708.59
2023-03-22T00:16:15.189Z,96711.19
2023-03-22T00:18:41.889Z,96716.63
2023-03-22T00:21:13.443Z,96706.31
2023-03-22T00:23:40.452Z,96710.72
2023-03-22T00:26:08.816Z,96707.84
2023-03-22T00:28:36.870Z,96698.19
2023-03-22T00:31:04.829Z,96691.59
2023-03-22T00:33:33.146Z,96696.94
2023-03-22T00:36:02.848Z,96696.50
2023-03-22T00:38:42.398Z,96680.22
2023-03-22T00:41:13.351Z,96682.34
2023-03-22T00:43:40.373Z,96677.59
2023-03-22T00:46:07.970Z,96678.31
2023-03-22T00:48:34.821Z,96685.44
2023-03-22T00:51:01.699Z,96683.03
2023-03-22T00:53:30.471Z,96681.16
2023-03-22T00:55:57.384Z,96675.16
2023-03-22T00:58:24.568Z,96672.44
2023-03-22T01:00:51.409Z,96678.16
2023-03-22T01:03:21.969Z,96668.56
2023-03-22T01:05:49.485Z,96654.72
2023-03-22T01:08:16.736Z,96662.03
2023-03-22T01:10:44.929Z,96657.16
2023-03-22T01:13:12.678Z,96650.03
2023-03-22T01:15:39.680Z,96644.97
2023-03-22T01:18:07.575Z,96640.28
2023-03-22T01:20:34.978Z,96650.47
2023-03-22T01:23:02.054Z,96635.59
2023-03-22T01:25:28.931Z,96635.22
2023-03-22T01:27:55.526Z,96626.41
2023-03-22T01:30:22.251Z,96626.13
2023-03-22T01:32:48.943Z,96627.13
2023-03-22T01:35:17.017Z,96628.63
2023-03-22T01:37:43.984Z,96626.75
2023-03-22T01:40:14.010Z,96614.47
2023-03-22T01:42:40.882Z,96619.50
2023-03-22T01:45:16.680Z,96613.25
2023-03-22T01:48:10.300Z,96615.38
2023-03-22T01:50:40.020Z,96609.38
2023-03-22T01:53:10.360Z,96604.53
2023-03-22T01:55:38.019Z,96605.88
2023-03-22T01:58:18.123Z,96611.69
2023-03-22T02:00:56.474Z,96607.44
2023-03-22T02:03:47.110Z,96608.84
2023-03-22T02:06:14.129Z,96612.47
2023-03-22T02:08:40.813Z,96612.78
2023-03-22T02:11:16.310Z,96602.50
2023-03-22T02:14:09.214Z,96598.38
2023-03-22T02:17:51.405Z,96600.66
2023-03-22T02:20:53.089Z,96603.03
2023-03-22T02:23:42.669Z,96596.69
2023-03-22T02:26:21.179Z,96595.09
2023-03-22T02:29:12.666Z,96601.25
2023-03-22T02:31:58.811Z,96600.91
2023-03-22T02:34:40.655Z,96600.56
2023-03-22T02:37:38.418Z,96592.88
2023-03-22T02:40:14.133Z,96595.38
2023-03-22T02:42:43.567Z,96599.25
2023-03-22T02:45:20.202Z,96600.81
2023-03-22T02:47:50.045Z,96600.47
2023-03-22T02:50:54.913Z,96589.22
2023-03-22T02:53:24.395Z,96590.38
2023-03-22T02:56:08.233Z,96593.00
2023-03-22T02:58:45.808Z,96592.25
2023-03-22T03:01:24.484Z,96583.72
2023-03-22T03:03:55.299Z,96576.22
2023-03-22T03:06:25.716Z,96569.22
2023-03-22T03:08:54.152Z,96567.53
2023-03-22T03:11:21.408Z,96570.06
2023-03-22T03:13:50.392Z,96568.28
2023-03-22T03:16:21.651Z,96568.66
2023-03-22T03:19:08.793Z,96556.19
2023-03-22T03:21:47.577Z,96551.53
2023-03-22T03:24:39.013Z,96552.28
2023-03-22T03:27:23.112Z,96549.50
2023-03-22T03:30:00.867Z,96547.50
2023-03-22T03:32:47.960Z,96544.16
2023-03-22T03:35:22.981Z,96543.59
2023-03-22T03:37:54.293Z,96547.41
2023-03-22T03:40:27.352Z,96545.09
2023-03-22T03:42:56.515Z,96546.19
2023-03-22T03:45:25.075Z,96549.00
2023-03-22T03:47:58.163Z,96544.72
2023-03-22T03:50:26.572Z,96542.34
2023-03-22T03:52:55.620Z,96539.94
2023-03-22T03:55:23.197Z,96540.50
2023-03-22T03:57:50.241Z,96531.44
2023-03-22T04:00:17.688Z,96538.72
2023-03-22T04:03:21.773Z,96535.91
2023-03-22T04:06:22.426Z,96538.16
2023-03-22T04:08:56.694Z,96530.31
2023-03-22T04:11:27.701Z,96537.63
2023-03-22T04:13:58.630Z,96535.91
2023-03-22T04:16:25.298Z,96534.63
2023-03-22T04:18:53.377Z,96549.66
2023-03-22T04:21:21.662Z,96543.47
2023-03-22T04:23:59.646Z,96549.38
2023-03-22T04:26:29.281Z,96534.59
2023-03-22T04:29:13.519Z,96539.09
2023-03-22T04:31:44.595Z,96541.91
2023-03-22T04:34:21.551Z,96539.00
2023-03-22T04:36:55.034Z,96535.56
2023-03-22T04:39:29.510Z,96539.66
2023-03-22T04:42:16.183Z,96536.56
2023-03-22T04:44:43.535Z,96539.66
2023-03-22T04:47:10.405Z,96534.97
2023-03-22T04:49:37.378Z,96544.41
2023-03-22T04:52:04.035Z,96538.97
2023-03-22T04:54:34.730Z,96542.34
2023-03-22T04:57:02.150Z,96530.25
2023-03-22T04:59:33.384Z,96529.44
2023-03-22T05:02:00.148Z,96527.81
2023-03-22T05:04:31.961Z,96525.97
2023-03-22T05:07:04.626Z,96523.72
2023-03-22T05:09:42.012Z,96525.88
2023-03-22T05:12:08.981Z,96525.50
2023-03-22T05:14:44.828Z,96520.75
2023-03-22T05:17:13.341Z,96512.72
2023-03-22T05:19:40.596Z,96497.00
2023-03-22T05:22:07.191Z,96510.19
2023-03-22T05:24:42.685Z,96514.88
2023-03-22T05:27:14.296Z,96499.63
2023-03-22T05:29:45.140Z,96499.41
2023-03-22T05:32:25.557Z,96497.75
2023-03-22T05:34:53.931Z,96496.22
2023-03-22T05:37:27.726Z,96499.22
2023-03-22T05:39:56.117Z,96497.91
2023-03-22T05:42:31.113Z,96507.25
2023-03-22T05:44:58.742Z,96510.25
2023-03-22T05:47:25.316Z,96515.63
2023-03-22T05:49:58.305Z,96516.50
2023-03-22T05:52:26.315Z,96528.13
2023-03-22T05:55:19.715Z,96514.75
2023-03-22T05:57:47.767Z,96508.06
2023-03-22T06:00:16.325Z,96512.19
2023-03-22T06:03:16.893Z,96521.03
2023-03-22T06:05:50.683Z,96511.91
2023-03-22T06:08:19.687Z,96508.34
2023-03-22T06:10:49.594Z,96513.94
2023-03-22T06:13:16.357Z,96503.94
2023-03-22T06:15:42.958Z,96505.50
2023-03-22T06:18:13.905Z,96500.69
2023-03-22T06:20:44.473Z,96512.22
2023-03-22T06:23:18.425Z,96512.22
2023-03-22T06:25:46.840Z,96516.16
2023-03-22T06:28:14.461Z,96520.94
2023-03-22T06:30:48.728Z,96517.31
2023-03-22T06:33:27.839Z,96514.13
2023-03-22T06:36:01.946Z,96514.97
2023-03-22T06:38:38.507Z,96519.25
2023-03-22T06:41:05.357Z,96526.50
2023-03-22T06:43:32.028Z,96522.09
2023-03-22T06:46:10.898Z,96517.50
2023-03-22T06:48:45.457Z,96524.66
2023-03-22T06:51:15.033Z,96518.31
2023-03-22T06:53:42.401Z,96511.78
2023-03-22T06:56:09.936Z,96518.63
2023-03-22T06:58:47.586Z,96518.66
2023-03-22T07:01:14.224Z,96504.63
2023-03-22T07:03:40.981Z,96503.41
2023-03-22T07:06:12.365Z,96505.66
2023-03-22T07:08:42.680Z,96504.81
2023-03-22T07:11:10.944Z,96519.63
2023-03-22T07:13:37.910Z,96514.19
2023-03-22T07:16:10.383Z,96517.50
2023-03-22T07:18:40.609Z,96519.59
2023-03-22T07:21:07.655Z,96526.84
2023-03-22T07:23:36.312Z,96522.41
2023-03-22T07:26:08.810Z,96525.63
2023-03-22T07:28:39.237Z,96536.00
2023-03-22T07:31:11.564Z,96535.03
2023-03-22T07:33:48.225Z,96540.53
2023-03-22T07:36:15.574Z,96533.63
2023-03-22T07:38:42.430Z,96538.69
2023-03-22T07:41:15.431Z,96537.41
2023-03-22T07:44:17.338Z,96528.59
2023-03-22T07:46:56.268Z,96526.53
2023-03-22T07:49:28.674Z,96530.28
2023-03-22T07:52:03.868Z,96522.09
2023-03-22T07:54:34.162Z,96521.53
2023-03-22T07:57:03.057Z,96529.56
2023-03-22T07:59:32.050Z,96519.25
2023-03-22T08:01:59.268Z,96512.88
2023-03-22T08:04:39.453Z,96513.97
2023-03-22T08:07:19.833Z,96511.56
2023-03-22T08:09:47.726Z,96497.78
2023-03-22T08:12:14.650Z,96512.41
2023-03-22T08:14:42.735Z,96506.66
2023-03-22T08:17:17.506Z,96500.41
2023-03-22T08:19:44.358Z,96496.88
2023-03-22T08:22:15.479Z,96490.97
2023-03-22T08:25:01.291Z,96485.13
2023-03-22T08:27:31.886Z,96487.09
2023-03-22T08:30:00.813Z,96484.13
2023-03-22T08:32:27.587Z,96479.97
2023-03-22T08:34:54.173Z,96478.16
2023-03-22T08:37:20.849Z,96490.19
2023-03-22T08:39:48.359Z,96482.13
2023-03-22T08:42:25.562Z,96482.41
2023-03-22T08:44:52.534Z,96480.59
2023-03-22T08:47:21.266Z,96489.34
2023-03-22T08:49:51.867Z,96485.34
2023-03-22T08:52:27.900Z,96477.81
2023-03-22T08:55:08.468Z,96488.59
2023-03-22T08:58:07.550Z,96462.47
2023-03-22T09:00:54.909Z,96470.47
2023-03-22T09:03:30.954Z,96466.75
2023-03-22T09:05:58.036Z,96471.13
2023-03-22T09:08:27.238Z,96464.94
2023-03-22T09:11:00.936Z,96457.22
2023-03-22T09:13:31.049Z,96456.09
2023-03-22T09:16:00.916Z,96454.44
2023-03-22T09:18:31.006Z,96460.56
2023-03-22T09:21:01.021Z,96448.72
2023-03-22T09:23:36.216Z,96455.88
2023-03-22T09:26:07.905Z,96456.84
2023-03-22T09:28:36.249Z,96467.19
2023-03-22T09:31:08.343Z,96462.50
2023-03-22T09:33:36.420Z,96463.72
2023-03-22T09:36:03.846Z,96465.84
2023-03-22T09:38:35.731Z,96458.84
2023-03-22T09:41:07.097Z,96462.59
2023-03-22T09:43:39.865Z,96456.94
2023-03-22T09:46:20.495Z,96461.13
2023-03-22T09:48:49.466Z,96464.31
2023-03-22T09:51:44.341Z,96467.22
2023-03-22T09:54:19.456Z,96469.56
2023-03-22T09:56:56.354Z,96467.94
2023-03-22T09:59:40.065Z,96466.03
2023-03-22T10:02:41.666Z,96477.94
2023-03-22T10:05:39.643Z,96470.44
2023-03-22T10:08:29.609Z,96464.56
2023-03-22T10:10:57.809Z,96475.97
2023-03-22T10:13:45.257Z,96467.66
2023-03-22T10:16:20.693Z,96476.19
2023-03-22T10:18:52.146Z,96469.03
2023-03-22T10:21:19.893Z,96476.31
2023-03-22T10:23:57.816Z,96475.91
2023-03-22T10:26:38.161Z,96448.06
2023-03-22T10:29:15.249Z,96443.25
2023-03-22T10:31:43.808Z,96447.41
2023-03-22T10:34:22.513Z,96453.13
2023-03-22T10:36:52.553Z,96450.59
2023-03-22T10:39:39.692Z,96445.91
2023-03-22T10:42:14.067Z,96429.19
2023-03-22T10:45:13.531Z,96428.91
2023-03-22T10:47:47.259Z,96438.44
2023-03-22T10:50:22.572Z,96438.81
2023-03-22T10:52:57.297Z,96441.75
2023-03-22T10:55:24.774Z,96435.69
2023-03-22T10:58:21.779Z,96436.16
2023-03-22T11:00:50.464Z,96434.34
2023-03-22T11:03:38.619Z,96442.41
2023-03-22T11:06:10.771Z,96442.84
2023-03-22T11:08:49.742Z,96445.75
2023-03-22T11:11:35.902Z,96441.25
2023-03-22T11:14:14.454Z,96433.25
2023-03-22T11:16:56.209Z,96433.31
2023-03-22T11:19:27.251Z,96443.50
2023-03-22T11:21:59.175Z,96441.28
2023-03-22T11:24:27.262Z,96445.78
2023-03-22T11:27:18.310Z,96444.13
2023-03-22T11:29:51.464Z,96448.38
2023-03-22T11:32:26.330Z,96456.97
2023-03-22T11:35:00.876Z,96458.06
2023-03-22T11:37:28.153Z,96452.19
2023-03-22T11:40:01.595Z,96437.34
2023-03-22T11:42:28.677Z,96442.41
2023-03-22T11:44:56.888Z,96442.97
2023-03-22T11:47:26.173Z,96440.88
2023-03-22T11:49:56.490Z,96442.25
2023-03-22T11:52:27.723Z,96450.88
2023-03-22T11:54:55.987Z,96455.66
2023-03-22T11:57:31.545Z,96446.50
2023-03-22T12:00:11.386Z,96454.78
2023-03-22T12:02:46.351Z,96451.88
2023-03-22T12:05:27.520Z,96445.00
2023-03-22T12:08:12.139Z,96441.31
2023-03-22T12:10:41.434Z,96443.50
2023-03-22T12:13:15.925Z,96432.06
2023-03-22T12:15:48.619Z,96450.91
2023-03-22T12:18:19.977Z,96434.38
2023-03-22T12:20:54.625Z,96436.72
2023-03-22T12:23:24.507Z,96440.25
2023-03-22T12:25:57.532Z,96436.78
2023-03-22T12:28:32.518Z,96418.72
2023-03-22T12:31:00.942Z,96422.84
2023-03-22T12:33:27.948Z,96423.25
2023-03-22T12:36:00.627Z,96432.31
2023-03-22T12:38:30.347Z,96429.44
2023-03-22T12:41:02.278Z,96425.13
2023-03-22T12:43:55.739Z,96424.53
2023-03-22T12:46:29.694Z,96427.34
2023-03-22T12:49:16.251Z,96427.81
2023-03-22T12:51:44.024Z,96424.09
2023-03-22T12:54:13.029Z,96423.38
2023-03-22T12:56:45.740Z,96419.19
2023-03-22T12:59:29.146Z,96415.16
2023-03-22T13:02:24.793Z,96410.66
2023-03-22T13:05:06.958Z,96399.91
2023-03-22T13:07:50.019Z,96392.72
2023-03-22T13:10:32.482Z,96403.03
2023-03-22T13:13:19.396Z,96396.72
2023-03-22T13:16:00.350Z,96392.94
2023-03-22T13:18:35.793Z,96398.50
2023-03-22T13:21:19.240Z,96400.59
2023-03-22T13:24:08.779Z,96399.28
2023-03-22T13:26:46.006Z,96406.78
2023-03-22T13:29:19.220Z,96403.16
2023-03-22T13:31:51.768Z,96393.91
2023-03-22T13:34:36.214Z,96386.25
2023-03-22T13:37:05.240Z,96388.88
2023-03-22T13:39:34.677Z,96380.38
2023-03-22T13:42:07.740Z,96371.16
2023-03-22T13:44:40.548Z,96366.72
2023-03-22T13:47:38.506Z,96368.38
2023-03-22T13:50:22.553Z,96376.47
2023-03-22T13:52:58.833Z,96376.22
2023-03-22T13:55:58.200Z,96377.75
2023-03-22T13:58:48.473Z,96374.28
2023-03-22T14:01:35.142Z,96376.22
2023-03-22T14:04:09.511Z,96367.28
2023-03-22T14:06:47.548Z,96362.91
2023-03-22T14:09:25.211Z,96352.09
2023-03-22T14:12:18.039Z,96348.16
2023-03-22T14:14:48.918Z,96348.72
2023-03-22T14:17:36.997Z,96346.38
2023-03-22T14:20:10.517Z,96341.91
